PROFILE

 METAR AND TAF INFORMATION
ADDS - METARS form results

(0555 UTC 09 August 2020)
http://aviationweather.gov/metar/data/
 
TAF TNCB 090512Z 0906/1012 09014KT 9999 SCT020 PROB30 TEMPO 0906/0916 10017G27KT 5000 SHRA TSRA SCT014CB 

 AIRPORT MAP

 RUNWAY INFORMATION
Runway 10 Runway length 9449 ft Runway width 148 ft
Runway elevation 14 ft Runway displaced threshold 0 ft Runway heading 92
Runway 28 Runway length 9449 ft Runway width 148 ft
Runway elevation 20 ft Runway displaced threshold 0 ft Runway heading 272

 AIRPORT FREQUENCIES
Type TWR Name TWR Frequency 118.7 MHZ

 AIRPORT NEAR NAVIGATION AIDS
Type NDB Name Bonaire Frequency 321 KHZ